createdAt,value
2018-06-15T00:01:19.927Z,17.02
2018-06-15T00:03:52.520Z,16.96
2018-06-15T00:06:23.439Z,16.91
2018-06-15T00:08:52.800Z,16.89
2018-06-15T00:11:22.299Z,16.87
2018-06-15T00:13:51.691Z,16.88
2018-06-15T00:16:21.145Z,16.90
2018-06-15T00:18:50.497Z,16.88
2018-06-15T00:21:19.864Z,16.81
2018-06-15T00:23:49.316Z,16.79
2018-06-15T00:26:18.609Z,16.75
2018-06-15T00:28:47.951Z,16.71
2018-06-15T00:31:17.360Z,16.75
2018-06-15T00:33:46.721Z,16.65
2018-06-15T00:36:16.119Z,16.66
2018-06-15T00:38:45.574Z,16.62
2018-06-15T00:41:14.898Z,16.55
2018-06-15T00:43:44.231Z,16.53
2018-06-15T00:46:13.344Z,16.50
2018-06-15T00:48:42.620Z,16.44
2018-06-15T00:51:11.972Z,16.40
2018-06-15T00:53:41.324Z,16.36
2018-06-15T00:56:10.700Z,16.32
2018-06-15T00:58:42.135Z,16.28
2018-06-15T01:04:36.142Z,16.33
2018-06-15T01:07:08.382Z,16.32
2018-06-15T01:09:41.206Z,16.33
2018-06-15T01:12:15.868Z,16.40
2018-06-15T01:14:45.266Z,16.38
2018-06-15T01:17:14.733Z,16.40
2018-06-15T01:19:43.924Z,16.40
2018-06-15T01:22:13.800Z,16.37
2018-06-15T01:24:43.194Z,16.42
2018-06-15T01:27:12.495Z,16.38
2018-06-15T01:29:41.790Z,16.36
2018-06-15T01:32:11.148Z,16.40
2018-06-15T01:34:40.978Z,16.39
2018-06-15T01:37:10.485Z,16.41
2018-06-15T01:39:39.808Z,16.42
2018-06-15T01:42:09.153Z,16.44
2018-06-15T01:44:38.441Z,16.40
2018-06-15T01:47:07.844Z,16.39
2018-06-15T01:49:37.217Z,16.37
2018-06-15T01:52:06.534Z,16.37
2018-06-15T01:54:35.903Z,16.39
2018-06-15T01:57:05.219Z,16.43
2018-06-15T01:59:34.663Z,16.43
2018-06-15T02:02:04.278Z,16.48
2018-06-15T02:04:33.631Z,16.48
2018-06-15T02:07:03.026Z,16.53
2018-06-15T02:09:32.510Z,16.52
2018-06-15T02:12:02.005Z,16.56
2018-06-15T02:14:31.553Z,16.54
2018-06-15T02:17:01.037Z,16.55
2018-06-15T02:19:30.505Z,16.56
2018-06-15T02:22:00.050Z,16.53
2018-06-15T02:24:29.444Z,16.48
2018-06-15T02:27:03.160Z,16.41
2018-06-15T02:29:33.158Z,16.37
2018-06-15T02:32:11.205Z,16.39
2018-06-15T02:34:42.834Z,16.43
2018-06-15T02:37:15.432Z,16.42
2018-06-15T02:39:51.526Z,16.47
2018-06-15T02:42:27.574Z,16.51
2018-06-15T02:44:59.541Z,16.53
2018-06-15T02:47:29.925Z,16.55
2018-06-15T02:50:00.458Z,16.62
2018-06-15T02:52:34.738Z,16.64
2018-06-15T02:55:09.004Z,16.68
2018-06-15T02:57:39.856Z,16.72
2018-06-15T03:00:09.087Z,16.70
2018-06-15T03:02:41.367Z,16.70
2018-06-15T03:05:11.957Z,16.72
2018-06-15T03:07:44.408Z,16.69
2018-06-15T03:10:19.523Z,16.73
2018-06-15T03:12:50.099Z,16.74
2018-06-15T03:15:22.327Z,16.76
2018-06-15T03:17:53.838Z,16.84
2018-06-15T03:20:23.537Z,16.89
2018-06-15T03:22:54.918Z,16.85
2018-06-15T03:25:24.163Z,16.83
2018-06-15T03:27:53.517Z,16.81
2018-06-15T03:30:24.425Z,16.81
2018-06-15T03:32:56.661Z,16.75
2018-06-15T03:35:40.134Z,16.72
2018-06-15T03:38:11.783Z,16.69
2018-06-15T03:40:41.168Z,16.64
2018-06-15T03:43:12.525Z,16.63
2018-06-15T03:45:42.876Z,16.63
2018-06-15T03:48:12.557Z,16.56
2018-06-15T03:50:43.216Z,16.60
2018-06-15T03:53:12.710Z,16.52
2018-06-15T03:55:42.037Z,16.46
2018-06-15T03:58:16.313Z,16.47
2018-06-15T04:00:46.950Z,16.43
2018-06-15T04:03:18.037Z,16.45
2018-06-15T04:05:54.050Z,16.50
2018-06-15T04:08:28.097Z,16.57
2018-06-15T04:11:00.503Z,16.65
2018-06-15T04:13:40.054Z,16.76
2018-06-15T04:16:10.817Z,16.84
2018-06-15T04:18:48.852Z,16.94
2018-06-15T04:21:19.471Z,17.02
2018-06-15T04:23:50.688Z,17.23
2018-06-15T04:26:26.744Z,17.41
2018-06-15T04:28:57.424Z,17.47
2018-06-15T04:31:32.711Z,17.42
2018-06-15T04:34:10.103Z,17.39
2018-06-15T04:36:39.655Z,17.45
2018-06-15T04:39:10.439Z,17.50
2018-06-15T04:41:40.844Z,17.56
2018-06-15T04:44:10.254Z,17.60
2018-06-15T04:46:40.109Z,17.59
2018-06-15T04:49:10.545Z,17.60
2018-06-15T04:51:40.078Z,17.68
2018-06-15T04:54:09.587Z,17.70
2018-06-15T04:56:40.716Z,17.70
2018-06-15T04:59:10.427Z,17.65
2018-06-15T05:01:40.104Z,17.65
2018-06-15T05:04:09.758Z,17.63
2018-06-15T05:06:39.208Z,17.62
2018-06-15T05:09:10.199Z,17.70
2018-06-15T05:11:39.796Z,17.71
2018-06-15T05:14:09.106Z,17.77
2018-06-15T05:16:38.405Z,17.84
2018-06-15T05:19:07.758Z,17.93
2018-06-15T05:21:38.513Z,17.98
2018-06-15T05:24:10.971Z,18.06
2018-06-15T05:26:41.862Z,18.20
2018-06-15T05:29:12.067Z,18.33
2018-06-15T05:31:41.850Z,18.35
2018-06-15T05:34:12.393Z,18.48
2018-06-15T05:36:42.544Z,18.48
2018-06-15T05:39:12.749Z,18.42
2018-06-15T05:41:42.687Z,18.41
2018-06-15T05:44:12.035Z,18.48
2018-06-15T05:46:41.447Z,18.67
2018-06-15T05:49:10.874Z,18.79
2018-06-15T05:51:40.214Z,18.83
2018-06-15T05:54:09.607Z,18.85
2018-06-15T05:56:38.975Z,18.87
2018-06-15T05:59:08.285Z,18.91
2018-06-15T06:01:37.596Z,19.08
2018-06-15T06:04:07.223Z,19.07
2018-06-15T06:06:36.670Z,19.26
2018-06-15T06:09:09.407Z,19.36
2018-06-15T06:11:38.877Z,19.50
2018-06-15T06:14:08.287Z,19.85
2018-06-15T06:16:37.703Z,20.05
2018-06-15T06:19:07.191Z,20.46
2018-06-15T06:21:36.727Z,20.71
2018-06-15T06:24:06.368Z,21.05
2018-06-15T06:26:40.119Z,21.03
2018-06-15T06:29:09.467Z,20.89
2018-06-15T06:31:38.637Z,20.75
2018-06-15T06:34:09.414Z,20.78
2018-06-15T06:36:38.986Z,21.02
2018-06-15T06:39:11.361Z,21.23
2018-06-15T06:41:41.578Z,21.12
2018-06-15T06:44:11.411Z,20.94
2018-06-15T06:46:40.841Z,20.98
2018-06-15T06:49:10.140Z,21.06
2018-06-15T06:51:39.455Z,21.39
2018-06-15T06:54:08.732Z,21.25
2018-06-15T06:56:38.099Z,21.70
2018-06-15T06:59:07.484Z,22.04
2018-06-15T07:01:41.353Z,22.67
2018-06-15T07:04:10.644Z,22.98
2018-06-15T07:06:40.094Z,23.17
2018-06-15T07:09:09.475Z,23.09
2018-06-15T07:11:40.855Z,23.17
2018-06-15T07:14:10.182Z,23.22
2018-06-15T07:16:39.489Z,23.29
2018-06-15T07:19:09.031Z,23.44
2018-06-15T07:21:38.467Z,23.61
2018-06-15T07:24:07.750Z,23.94
2018-06-15T07:26:37.119Z,23.76
2018-06-15T07:29:06.442Z,23.62
2018-06-15T07:31:35.969Z,23.22
2018-06-15T07:34:05.327Z,22.88
2018-06-15T07:36:34.724Z,22.68
2018-06-15T07:39:04.862Z,22.77
2018-06-15T07:41:34.261Z,22.98
2018-06-15T07:44:03.706Z,23.12
2018-06-15T07:46:33.089Z,23.16
2018-06-15T07:49:02.579Z,23.14
2018-06-15T07:51:31.820Z,22.98
2018-06-15T07:54:01.266Z,22.92
2018-06-15T07:56:30.694Z,22.98
2018-06-15T07:59:00.267Z,22.82
2018-06-15T08:01:29.659Z,22.86
2018-06-15T08:04:03.713Z,22.80
2018-06-15T08:06:33.581Z,22.80
2018-06-15T08:09:03.010Z,22.64
2018-06-15T08:11:32.559Z,22.78
2018-06-15T08:14:02.162Z,22.71
2018-06-15T08:16:32.120Z,22.55
2018-06-15T08:19:01.733Z,22.40
2018-06-15T08:21:31.222Z,22.20
2018-06-15T08:24:00.636Z,22.08
2018-06-15T08:26:30.094Z,21.88
2018-06-15T08:28:59.431Z,21.87
2018-06-15T08:31:28.735Z,21.64
2018-06-15T08:33:58.135Z,22.18
2018-06-15T08:36:27.438Z,23.55
2018-06-15T08:38:57.005Z,24.81
2018-06-15T08:41:26.278Z,25.69
2018-06-15T08:43:55.591Z,26.28
2018-06-15T08:46:24.914Z,26.88
2018-06-15T08:48:54.830Z,26.40
2018-06-15T08:51:24.151Z,26.91
2018-06-15T08:53:53.434Z,26.20
2018-06-15T08:56:22.713Z,26.23
2018-06-15T08:58:52.197Z,26.43
2018-06-15T09:01:21.497Z,27.14
2018-06-15T09:03:50.773Z,27.80
2018-06-15T09:06:20.173Z,28.26
2018-06-15T09:08:49.456Z,28.60
2018-06-15T09:11:18.852Z,28.97
2018-06-15T09:13:48.115Z,29.04
2018-06-15T09:16:17.394Z,28.95
2018-06-15T09:18:46.705Z,28.55
2018-06-15T09:21:15.824Z,28.60
2018-06-15T09:23:45.149Z,29.38
2018-06-15T09:26:14.439Z,29.70
2018-06-15T09:28:43.725Z,28.49
2018-06-15T09:31:13.033Z,29.34
2018-06-15T09:33:42.405Z,29.16
2018-06-15T09:36:11.777Z,29.74
2018-06-15T09:38:41.187Z,30.07
2018-06-15T09:41:10.549Z,30.01
2018-06-15T09:43:39.839Z,30.07
2018-06-15T09:46:09.167Z,29.37
2018-06-15T09:48:42.225Z,29.57
2018-06-15T09:51:12.600Z,29.00
2018-06-15T09:53:41.882Z,28.41
2018-06-15T09:56:11.249Z,27.63
2018-06-15T09:58:40.519Z,27.27
2018-06-15T10:01:11.017Z,26.07
2018-06-15T10:03:40.895Z,26.45
2018-06-15T10:06:10.274Z,26.88
2018-06-15T10:08:39.586Z,26.34
2018-06-15T10:11:08.966Z,27.27
2018-06-15T10:13:38.061Z,26.71
2018-06-15T10:16:07.397Z,25.90
2018-06-15T10:18:37.705Z,27.49
2018-06-15T10:21:07.207Z,27.95
2018-06-15T10:23:36.515Z,28.95
2018-06-15T10:26:09.810Z,28.31
2018-06-15T10:28:42.979Z,27.88
2018-06-15T10:31:16.445Z,26.83
2018-06-15T10:33:49.907Z,26.44
2018-06-15T10:36:19.395Z,25.92
2018-06-15T10:38:48.879Z,25.89
2018-06-15T10:41:18.225Z,26.11
2018-06-15T10:43:47.493Z,26.23
2018-06-15T10:46:16.793Z,26.63
2018-06-15T10:48:46.051Z,27.41
2018-06-15T10:51:15.417Z,28.33
2018-06-15T10:53:44.794Z,28.78
2018-06-15T10:56:14.189Z,28.92
2018-06-15T10:58:43.414Z,28.93
2018-06-15T11:01:12.760Z,27.99
2018-06-15T11:03:42.057Z,27.78
2018-06-15T11:06:11.300Z,27.86
2018-06-15T11:08:40.580Z,28.88
2018-06-15T11:11:10.186Z,28.92
2018-06-15T11:13:39.514Z,28.54
2018-06-15T11:16:08.834Z,27.97
2018-06-15T11:18:38.174Z,27.58
2018-06-15T11:21:07.591Z,27.17
2018-06-15T11:23:36.948Z,27.76
2018-06-15T11:26:06.525Z,28.68
2018-06-15T11:28:35.914Z,29.40
2018-06-15T11:31:05.319Z,29.20
2018-06-15T11:33:34.877Z,29.56
2018-06-15T11:36:05.018Z,29.15
2018-06-15T11:38:34.926Z,28.53
2018-06-15T11:41:05.182Z,27.87
2018-06-15T11:43:35.158Z,28.53
2018-06-15T11:46:04.801Z,28.91
2018-06-15T11:48:36.484Z,29.46
2018-06-15T11:51:06.013Z,29.05
2018-06-15T11:53:35.397Z,29.54
2018-06-15T11:56:04.962Z,30.06
2018-06-15T11:58:34.598Z,29.58
2018-06-15T12:01:04.516Z,28.54
2018-06-15T12:03:34.015Z,28.40
2018-06-15T12:06:03.501Z,29.08
2018-06-15T12:08:34.957Z,29.21
2018-06-15T12:11:04.599Z,29.47
2018-06-15T12:13:34.348Z,30.03
2018-06-15T12:16:03.564Z,29.74
2018-06-15T12:18:33.128Z,29.27
2018-06-15T12:21:02.915Z,28.99
2018-06-15T12:23:32.332Z,28.12
2018-06-15T12:26:01.777Z,27.94
2018-06-15T12:28:32.578Z,28.34
2018-06-15T12:31:02.265Z,28.96
2018-06-15T12:33:31.838Z,28.57
2018-06-15T12:36:01.768Z,28.49
2018-06-15T12:38:31.246Z,28.99
2018-06-15T12:41:01.358Z,29.68
2018-06-15T12:43:31.112Z,29.64
2018-06-15T12:46:01.402Z,29.38
2018-06-15T12:48:31.338Z,28.52
2018-06-15T12:51:01.202Z,28.56
2018-06-15T12:53:30.826Z,29.11
2018-06-15T12:56:00.643Z,29.54
2018-06-15T12:58:30.170Z,29.56
2018-06-15T13:00:59.573Z,28.49
2018-06-15T13:03:28.997Z,27.91
2018-06-15T13:05:58.339Z,28.43
2018-06-15T13:08:27.819Z,28.55
2018-06-15T13:10:57.176Z,28.75
2018-06-15T13:13:26.496Z,29.05
2018-06-15T13:15:55.923Z,28.51
2018-06-15T13:18:25.211Z,28.11
2018-06-15T13:20:54.574Z,28.43
2018-06-15T13:23:24.014Z,28.74
2018-06-15T13:25:53.481Z,29.14
2018-06-15T13:28:22.492Z,29.48
2018-06-15T13:30:51.900Z,29.61
2018-06-15T13:33:21.710Z,29.29
2018-06-15T13:35:51.015Z,29.70
2018-06-15T13:38:21.289Z,29.47
2018-06-15T13:40:50.589Z,29.24
2018-06-15T13:43:20.149Z,29.01
2018-06-15T13:45:49.499Z,28.21
2018-06-15T13:48:18.951Z,28.78
2018-06-15T13:50:48.261Z,29.34
2018-06-15T13:53:17.382Z,28.84
2018-06-15T13:55:46.907Z,28.44
2018-06-15T13:58:16.258Z,28.69
2018-06-15T14:00:45.745Z,28.33
2018-06-15T14:03:15.368Z,28.00
2018-06-15T14:05:44.966Z,27.59
2018-06-15T14:08:14.323Z,27.33
2018-06-15T14:10:43.749Z,26.95
2018-06-15T14:13:13.082Z,26.81
2018-06-15T14:15:42.431Z,26.71
2018-06-15T14:18:11.776Z,26.52
2018-06-15T14:20:41.105Z,26.23
2018-06-15T14:23:10.490Z,26.11
2018-06-15T14:25:39.871Z,26.12
2018-06-15T14:28:09.365Z,26.10
2018-06-15T14:30:38.678Z,26.17
2018-06-15T14:33:08.238Z,26.42
2018-06-15T14:35:37.624Z,26.83
2018-06-15T14:38:07.290Z,27.46
2018-06-15T14:40:36.788Z,27.60
2018-06-15T14:43:06.254Z,27.39
2018-06-15T14:45:35.810Z,27.14
2018-06-15T14:48:05.477Z,26.86
2018-06-15T14:50:34.975Z,26.57
2018-06-15T14:53:04.641Z,26.50
2018-06-15T14:55:34.044Z,26.29
2018-06-15T14:58:03.555Z,26.18
2018-06-15T15:00:32.979Z,26.30
2018-06-15T15:03:02.573Z,26.28
2018-06-15T15:05:32.998Z,26.40
2018-06-15T15:08:05.577Z,26.72
2018-06-15T15:10:35.044Z,26.29
2018-06-15T15:13:04.513Z,25.93
2018-06-15T15:15:33.931Z,26.33
2018-06-15T15:18:06.596Z,26.42
2018-06-15T15:20:40.701Z,26.36
2018-06-15T15:23:12.963Z,26.41
2018-06-15T15:25:47.320Z,26.44
2018-06-15T15:28:17.649Z,26.57
2018-06-15T15:30:52.655Z,26.66
2018-06-15T15:33:22.250Z,26.87
2018-06-15T15:35:57.737Z,26.98
2018-06-15T15:38:28.912Z,27.24
2018-06-15T15:41:03.456Z,26.83
2018-06-15T15:43:38.434Z,26.70
2018-06-15T15:46:10.756Z,26.31
2018-06-15T15:48:41.946Z,26.11
2018-06-15T15:51:19.615Z,26.06
2018-06-15T15:53:50.854Z,26.06
2018-06-15T15:56:20.310Z,26.13
2018-06-15T15:58:53.016Z,26.14
2018-06-15T16:01:22.099Z,26.08
2018-06-15T16:03:51.537Z,25.93
2018-06-15T16:06:21.344Z,25.87
2018-06-15T16:08:51.236Z,25.76
2018-06-15T16:11:22.349Z,25.93
2018-06-15T16:13:53.663Z,25.77
2018-06-15T16:16:22.972Z,25.51
2018-06-15T16:18:53.717Z,25.84
2018-06-15T16:21:23.515Z,25.91
2018-06-15T16:23:54.872Z,25.81
2018-06-15T16:26:27.652Z,25.75
2018-06-15T16:28:57.151Z,25.58
2018-06-15T16:31:26.514Z,25.53
2018-06-15T16:33:57.435Z,25.40
2018-06-15T16:36:33.801Z,25.36
2018-06-15T16:39:12.529Z,25.31
2018-06-15T16:41:47.900Z,25.14
2018-06-15T16:44:19.635Z,25.12
2018-06-15T16:46:53.356Z,24.89
2018-06-15T16:49:36.514Z,24.91
2018-06-15T16:52:12.812Z,24.89
2018-06-15T16:54:44.029Z,24.91
2018-06-15T16:57:20.564Z,24.90
2018-06-15T16:59:49.645Z,24.82
2018-06-15T17:02:23.326Z,24.65
2018-06-15T17:05:00.650Z,24.50
2018-06-15T17:07:30.319Z,24.53
2018-06-15T17:10:00.089Z,24.52
2018-06-15T17:12:31.761Z,24.51
2018-06-15T17:15:05.906Z,24.43
2018-06-15T17:17:36.308Z,24.41
2018-06-15T17:20:19.579Z,24.40
2018-06-15T17:22:54.232Z,24.35
2018-06-15T17:25:23.731Z,24.25
2018-06-15T17:27:57.038Z,24.28
2018-06-15T17:30:27.554Z,24.20
2018-06-15T17:32:57.947Z,24.16
2018-06-15T17:35:35.907Z,24.11
2018-06-15T17:38:07.203Z,24.09
2018-06-15T17:40:36.566Z,24.07
2018-06-15T17:43:05.965Z,24.02
2018-06-15T17:45:35.473Z,23.98
2018-06-15T17:48:05.501Z,23.92
2018-06-15T17:50:39.218Z,23.83
2018-06-15T17:53:08.630Z,23.77
2018-06-15T17:55:38.708Z,23.69
2018-06-15T18:00:38.166Z,23.54
2018-06-15T18:03:07.714Z,23.47
2018-06-15T18:05:41.912Z,23.38
2018-06-15T18:08:17.788Z,23.30
2018-06-15T18:10:48.872Z,23.22
2018-06-15T18:13:18.375Z,23.15
2018-06-15T18:15:47.717Z,23.08
2018-06-15T18:18:22.810Z,23.05
2018-06-15T18:20:52.204Z,23.01
2018-06-15T18:23:21.595Z,22.98
2018-06-15T18:25:51.034Z,22.98
2018-06-15T18:28:20.432Z,22.89
2018-06-15T18:30:49.893Z,22.84
2018-06-15T18:33:19.239Z,22.80
2018-06-15T18:35:48.634Z,22.73
2018-06-15T18:38:18.031Z,22.70
2018-06-15T18:40:47.525Z,22.60
2018-06-15T18:43:17.029Z,22.58
2018-06-15T18:45:46.480Z,22.61
2018-06-15T18:48:15.930Z,22.57
2018-06-15T18:50:45.413Z,22.57
2018-06-15T18:53:15.046Z,22.55
2018-06-15T18:55:44.908Z,22.49
2018-06-15T18:58:13.974Z,22.46
2018-06-15T19:00:45.353Z,22.42
2018-06-15T19:03:15.066Z,22.35
2018-06-15T19:05:44.636Z,22.30
2018-06-15T19:08:13.985Z,22.31
2018-06-15T19:10:43.332Z,22.28
2018-06-15T19:13:12.648Z,22.23
2018-06-15T19:15:42.457Z,22.16
2018-06-15T19:18:11.916Z,22.11
2018-06-15T19:20:41.497Z,22.05
2018-06-15T19:23:10.945Z,22.02
2018-06-15T19:25:40.043Z,21.97
2018-06-15T19:28:09.520Z,21.88
2018-06-15T19:30:38.865Z,21.80
2018-06-15T19:33:08.528Z,21.74
2018-06-15T19:35:38.052Z,21.68
2018-06-15T19:38:07.444Z,21.63
2018-06-15T19:40:36.905Z,21.56
2018-06-15T19:43:06.835Z,21.50
2018-06-15T19:45:36.611Z,21.41
2018-06-15T19:48:05.976Z,21.35
2018-06-15T19:50:35.586Z,21.29
2018-06-15T19:53:05.286Z,21.24
2018-06-15T19:55:35.049Z,21.16
2018-06-15T19:58:04.464Z,21.08
2018-06-15T20:00:34.180Z,21.04
2018-06-15T20:03:04.593Z,20.95
2018-06-15T20:05:34.016Z,20.86
2018-06-15T20:08:04.818Z,20.76
2018-06-15T20:10:34.809Z,20.67
2018-06-15T20:13:04.241Z,20.61
2018-06-15T20:15:33.685Z,20.53
2018-06-15T20:18:03.279Z,20.45
2018-06-15T20:20:35.456Z,20.39
2018-06-15T20:23:04.958Z,20.33
2018-06-15T20:25:34.422Z,20.28
2018-06-15T20:28:04.486Z,20.23
2018-06-15T20:30:35.164Z,20.19
2018-06-15T20:33:04.915Z,20.14
2018-06-15T20:35:47.237Z,20.08
2018-06-15T20:38:16.545Z,20.05
2018-06-15T20:43:44.203Z,19.93
2018-06-15T20:49:22.869Z,19.90
2018-06-15T20:51:54.617Z,19.95
2018-06-15T20:54:24.060Z,19.85
2018-06-15T20:56:53.599Z,19.85
2018-06-15T20:59:22.983Z,19.74
2018-06-15T21:01:52.384Z,19.66
2018-06-15T21:04:21.752Z,19.61
2018-06-15T21:06:51.020Z,19.55
2018-06-15T21:09:20.395Z,19.52
2018-06-15T21:11:49.686Z,19.54
2018-06-15T21:14:19.022Z,19.52
2018-06-15T21:16:48.417Z,19.52
2018-06-15T21:19:18.758Z,19.49
2018-06-15T21:21:48.120Z,19.48
2018-06-15T21:24:18.346Z,19.46
2018-06-15T21:26:47.647Z,19.44
2018-06-15T21:29:16.943Z,19.43
2018-06-15T21:31:46.512Z,19.44
2018-06-15T21:34:15.977Z,19.47
2018-06-15T21:36:46.164Z,19.51
2018-06-15T21:39:15.491Z,19.59
2018-06-15T21:41:44.979Z,19.62
2018-06-15T21:44:15.192Z,19.65
2018-06-15T21:46:44.671Z,19.66
2018-06-15T21:49:14.025Z,19.64
2018-06-15T21:51:43.492Z,19.66
2018-06-15T21:54:12.834Z,19.61
2018-06-15T21:56:42.397Z,19.57
2018-06-15T21:59:11.784Z,19.55
2018-06-15T22:01:41.232Z,19.53
2018-06-15T22:04:10.832Z,19.52
2018-06-15T22:06:40.521Z,19.53
2018-06-15T22:09:10.124Z,19.52
2018-06-15T22:11:39.535Z,19.50
2018-06-15T22:14:08.946Z,19.51
2018-06-15T22:16:43.516Z,19.69
2018-06-15T22:19:29.766Z,19.74
2018-06-15T22:21:59.196Z,19.86
2018-06-15T22:24:29.068Z,19.84
2018-06-15T22:26:58.497Z,19.95
2018-06-15T22:29:27.822Z,19.89
2018-06-15T22:31:57.376Z,19.88
2018-06-15T22:34:26.464Z,19.78
2018-06-15T22:36:55.917Z,19.79
2018-06-15T22:39:25.388Z,19.72
2018-06-15T22:41:55.925Z,19.58
2018-06-15T22:44:25.442Z,19.45
2018-06-15T22:46:54.661Z,19.32
2018-06-15T22:49:24.005Z,19.17
2018-06-15T22:51:53.495Z,19.04
2018-06-15T22:54:22.845Z,19.03
2018-06-15T22:56:52.177Z,19.06
2018-06-15T22:59:21.592Z,19.27
2018-06-15T23:01:50.882Z,19.36
2018-06-15T23:04:20.169Z,19.39
2018-06-15T23:06:49.568Z,19.41
2018-06-15T23:09:18.997Z,19.41
2018-06-15T23:11:48.264Z,19.29
2018-06-15T23:14:17.631Z,19.21
2018-06-15T23:17:09.923Z,19.12
2018-06-15T23:19:39.296Z,18.98
2018-06-15T23:22:14.475Z,18.89
2018-06-15T23:24:44.415Z,18.77
2018-06-15T23:27:13.722Z,18.68
2018-06-15T23:29:43.123Z,18.60
2018-06-15T23:32:16.974Z,18.53
2018-06-15T23:34:51.290Z,18.52
2018-06-15T23:37:20.840Z,18.55
2018-06-15T23:39:50.303Z,18.57
2018-06-15T23:42:19.627Z,18.59
2018-06-15T23:44:50.656Z,18.55
2018-06-15T23:47:20.018Z,18.55
2018-06-15T23:49:49.403Z,18.50
2018-06-15T23:52:18.861Z,18.44
2018-06-15T23:54:48.777Z,18.40
2018-06-15T23:57:18.173Z,18.38
2018-06-15T23:59:47.508Z,18.38
